createdAt,value
2019-01-20T00:00:13.082Z,37.3
2019-01-20T00:01:03.397Z,37.3
2019-01-20T00:01:53.718Z,37.3
2019-01-20T00:02:43.504Z,37.3
2019-01-20T00:03:33.608Z,37.3
2019-01-20T00:04:23.647Z,37.3
2019-01-20T00:05:13.117Z,37.3
2019-01-20T00:06:04.065Z,37.3
2019-01-20T00:06:54.068Z,37.3
2019-01-20T00:07:44.398Z,37.3
2019-01-20T00:08:33.636Z,37.3
2019-01-20T00:09:23.953Z,37.3
2019-01-20T00:10:14.361Z,37.3
2019-01-20T00:11:04.344Z,37.3
2019-01-20T00:11:54.396Z,37.3
2019-01-20T00:12:44.533Z,37.3
2019-01-20T00:13:34.828Z,37.3
2019-01-20T00:14:24.853Z,37.3
2019-01-20T00:15:14.927Z,37.3
2019-01-20T00:16:04.410Z,37.3
2019-01-20T00:16:54.790Z,37.2
2019-01-20T00:17:44.540Z,37.2
2019-01-20T00:18:35.148Z,37.3
2019-01-20T00:19:24.935Z,37.2
2019-01-20T00:20:15.631Z,37.2
2019-01-20T00:21:05.370Z,37.2
2019-01-20T00:21:55.573Z,37.2
2019-01-20T00:22:44.868Z,37.2
2019-01-20T00:23:35.219Z,37.2
2019-01-20T00:24:24.767Z,37.2
2019-01-20T00:25:15.552Z,37.2
2019-01-20T00:26:05.404Z,37.2
2019-01-20T00:26:55.445Z,37.2
2019-01-20T00:27:45.485Z,37.2
2019-01-20T00:28:35.545Z,37.1
2019-01-20T00:29:25.615Z,37.2
2019-01-20T00:30:15.660Z,37.1
2019-01-20T00:31:05.444Z,37.1
2019-01-20T00:31:55.573Z,37.1
2019-01-20T00:32:45.059Z,37.1
2019-01-20T00:33:36.186Z,37.1
2019-01-20T00:34:26.637Z,37.1
2019-01-20T00:35:17.934Z,37.1
2019-01-20T00:36:06.339Z,37.1
2019-01-20T00:36:56.391Z,37.1
2019-01-20T00:37:46.177Z,37.1
2019-01-20T00:38:36.002Z,37.1
2019-01-20T00:39:26.021Z,37.1
2019-01-20T00:40:16.365Z,37.1
2019-01-20T00:41:06.426Z,37.1
2019-01-20T00:41:56.778Z,37.1
2019-01-20T00:42:45.966Z,37.1
2019-01-20T00:43:36.299Z,37.1
2019-01-20T00:44:25.811Z,37.1
2019-01-20T00:45:15.877Z,37.1
2019-01-20T00:46:06.481Z,37.1
2019-01-20T00:46:57.101Z,37
2019-01-20T00:47:46.888Z,37.1
2019-01-20T00:48:36.931Z,37
2019-01-20T00:49:26.709Z,37.1
2019-01-20T00:50:16.498Z,37.1
2019-01-20T00:51:06.805Z,37
2019-01-20T00:51:56.873Z,37
2019-01-20T00:52:47.216Z,37
2019-01-20T00:53:37.271Z,37
2019-01-20T00:54:27.045Z,37
2019-01-20T00:55:16.837Z,37
2019-01-20T00:56:07.474Z,37
2019-01-20T00:56:57.770Z,37
2019-01-20T00:57:47.615Z,37
2019-01-20T00:58:37.395Z,37
2019-01-20T00:59:27.125Z,36.9
2019-01-20T01:00:17.761Z,36.9
2019-01-20T01:01:07.535Z,36.9
2019-01-20T01:01:57.307Z,36.9
2019-01-20T01:02:48.119Z,37
2019-01-20T01:03:37.957Z,36.9
2019-01-20T01:04:28.035Z,36.9
2019-01-20T01:05:18.079Z,36.9
2019-01-20T01:06:08.437Z,36.9
2019-01-20T01:06:58.187Z,36.9
2019-01-20T01:07:47.995Z,36.9
2019-01-20T01:08:38.352Z,36.9
2019-01-20T01:09:28.379Z,36.9
2019-01-20T01:10:18.212Z,36.9
2019-01-20T01:11:08.470Z,36.9
2019-01-20T01:11:58.812Z,36.9
2019-01-20T01:12:48.372Z,36.9
2019-01-20T01:13:38.926Z,36.9
2019-01-20T01:14:28.507Z,36.9
2019-01-20T01:15:17.937Z,36.9
2019-01-20T01:16:07.986Z,36.9
2019-01-20T01:16:58.866Z,36.9
2019-01-20T01:17:49.254Z,36.9
2019-01-20T01:18:39.001Z,36.9
2019-01-20T01:19:28.786Z,36.9
2019-01-20T01:20:18.853Z,36.9
2019-01-20T01:21:08.888Z,36.9
2019-01-20T01:21:58.680Z,36.9
2019-01-20T01:22:49.293Z,36.8
2019-01-20T01:23:39.061Z,36.8
2019-01-20T01:24:29.403Z,36.8
2019-01-20T01:25:19.466Z,36.8
2019-01-20T01:26:09.226Z,36.8
2019-01-20T01:26:58.769Z,36.8
2019-01-20T01:27:49.611Z,36.8
2019-01-20T01:28:39.466Z,36.8
2019-01-20T01:29:29.754Z,36.8
2019-01-20T01:30:19.238Z,36.8
2019-01-20T01:31:09.588Z,36.8
2019-01-20T01:31:58.796Z,36.8
2019-01-20T01:32:49.702Z,36.8
2019-01-20T01:33:40.025Z,36.8
2019-01-20T01:34:30.065Z,36.8
2019-01-20T01:35:19.733Z,36.8
2019-01-20T01:36:10.198Z,36.8
2019-01-20T01:36:59.978Z,36.8
2019-01-20T01:37:50.040Z,36.8
2019-01-20T01:38:40.150Z,36.8
2019-01-20T01:39:30.730Z,36.8
2019-01-20T01:40:19.935Z,36.8
2019-01-20T01:41:09.980Z,36.8
2019-01-20T01:42:00.628Z,36.8
2019-01-20T01:42:50.650Z,36.8
2019-01-20T01:43:40.435Z,36.8
2019-01-20T01:44:30.765Z,36.8
2019-01-20T01:45:21.120Z,36.7
2019-01-20T01:46:10.602Z,36.7
2019-01-20T01:47:00.654Z,36.7
2019-01-20T01:47:50.762Z,36.7
2019-01-20T01:48:41.117Z,36.7
2019-01-20T01:49:30.260Z,36.7
2019-01-20T01:50:20.920Z,36.7
2019-01-20T01:51:10.952Z,36.7
2019-01-20T01:52:01.640Z,36.6
2019-01-20T01:52:51.074Z,36.7
2019-01-20T01:53:41.447Z,36.6
2019-01-20T01:54:31.449Z,36.6
2019-01-20T01:55:21.248Z,36.6
2019-01-20T01:56:11.329Z,36.6
2019-01-20T01:57:01.631Z,36.6
2019-01-20T01:57:50.861Z,36.6
2019-01-20T01:58:41.751Z,36.6
2019-01-20T01:59:31.803Z,36.6
2019-01-20T02:00:21.641Z,36.6
2019-01-20T02:01:12.194Z,36.6
2019-01-20T02:02:02.024Z,36.6
2019-01-20T02:02:52.041Z,36.6
2019-01-20T02:03:42.073Z,36.6
2019-01-20T02:04:32.157Z,36.6
2019-01-20T02:05:21.929Z,36.6
2019-01-20T02:06:11.991Z,36.6
2019-01-20T02:07:02.041Z,36.6
2019-01-20T02:07:52.701Z,36.6
2019-01-20T02:08:42.761Z,36.6
2019-01-20T02:09:32.530Z,36.6
2019-01-20T02:10:22.851Z,36.6
2019-01-20T02:11:12.049Z,36.6
2019-01-20T02:12:02.163Z,36.6
2019-01-20T02:12:53.011Z,36.6
2019-01-20T02:13:42.773Z,36.6
2019-01-20T02:14:32.550Z,36.6
2019-01-20T02:15:23.175Z,36.5
2019-01-20T02:16:12.113Z,36.5
2019-01-20T02:17:02.730Z,36.5
2019-01-20T02:17:53.068Z,36.5
2019-01-20T02:18:43.118Z,36.5
2019-01-20T02:19:32.883Z,36.5
2019-01-20T02:20:23.245Z,36.5
2019-01-20T02:21:13.617Z,36.5
2019-01-20T02:22:03.641Z,36.5
2019-01-20T02:22:53.412Z,36.4
2019-01-20T02:23:43.180Z,36.5
2019-01-20T02:24:33.232Z,36.5
2019-01-20T02:25:23.622Z,36.5
2019-01-20T02:26:13.677Z,36.4
2019-01-20T02:27:03.702Z,36.4
2019-01-20T02:27:53.751Z,36.4
2019-01-20T02:28:43.810Z,36.4
2019-01-20T02:29:33.584Z,36.4
2019-01-20T02:30:24.275Z,36.4
2019-01-20T02:31:13.452Z,36.4
2019-01-20T02:32:04.089Z,36.4
2019-01-20T02:32:53.652Z,36.4
2019-01-20T02:33:43.666Z,36.4
2019-01-20T02:34:34.234Z,36.4
2019-01-20T02:35:24.016Z,36.4
2019-01-20T02:36:14.350Z,36.4
2019-01-20T02:37:04.394Z,36.4
2019-01-20T02:37:54.241Z,36.4
2019-01-20T02:38:44.204Z,36.4
2019-01-20T02:39:34.294Z,36.4
2019-01-20T02:40:24.996Z,36.4
2019-01-20T02:41:14.145Z,36.4
2019-01-20T02:42:04.501Z,36.4
2019-01-20T02:42:54.539Z,36.4
2019-01-20T02:43:44.871Z,36.4
2019-01-20T02:44:34.902Z,36.4
2019-01-20T02:45:25.267Z,36.4
2019-01-20T02:46:15.140Z,36.4
2019-01-20T02:47:05.364Z,36.4
2019-01-20T02:47:55.441Z,36.3
2019-01-20T02:48:45.188Z,36.3
2019-01-20T02:49:35.546Z,36.3
2019-01-20T02:50:25.088Z,36.3
2019-01-20T02:51:15.665Z,36.4
2019-01-20T02:52:05.464Z,36.3
2019-01-20T02:52:54.726Z,36.3
2019-01-20T02:53:45.548Z,36.3
2019-01-20T02:54:35.639Z,36.3
2019-01-20T02:55:25.690Z,36.3
2019-01-20T02:56:14.857Z,36.3
2019-01-20T02:57:05.835Z,36.3
2019-01-20T02:57:55.616Z,36.3
2019-01-20T02:58:45.620Z,36.3
2019-01-20T02:59:35.399Z,36.3
2019-01-20T03:00:25.527Z,36.3
2019-01-20T03:01:15.511Z,36.3
2019-01-20T03:02:06.145Z,36.3
2019-01-20T03:02:56.473Z,36.3
2019-01-20T03:03:45.489Z,36.3
2019-01-20T03:04:36.302Z,36.3
2019-01-20T03:05:26.077Z,36.3
2019-01-20T03:08:40.718Z,36.2
2019-01-20T03:09:30.520Z,36.2
2019-01-20T03:10:20.877Z,36.2
2019-01-20T03:11:10.916Z,36.2
2019-01-20T03:12:07.950Z,36.2
2019-01-20T03:12:50.712Z,36.2
2019-01-20T03:13:41.045Z,36.2
2019-01-20T03:14:30.881Z,36.2
2019-01-20T03:15:20.917Z,36.2
2019-01-20T03:16:11.295Z,36.2
2019-01-20T03:17:00.796Z,36.2
2019-01-20T03:17:51.360Z,36.2
2019-01-20T03:18:41.396Z,36.2
2019-01-20T03:19:31.452Z,36.1
2019-01-20T03:20:21.246Z,36.1
2019-01-20T03:21:11.060Z,36.1
2019-01-20T03:22:01.353Z,36.1
2019-01-20T03:22:51.428Z,36.1
2019-01-20T03:23:41.504Z,36.1
2019-01-20T03:24:31.784Z,36.1
2019-01-20T03:25:21.583Z,36.1
2019-01-20T03:26:12.042Z,36.1
2019-01-20T03:27:01.716Z,36.1
2019-01-20T03:27:51.778Z,36.1
2019-01-20T03:28:41.794Z,36.1
2019-01-20T03:29:31.910Z,36.1
2019-01-20T03:30:22.176Z,36.1
2019-01-20T03:31:12.262Z,36.1
2019-01-20T03:32:02.144Z,36.1
2019-01-20T03:32:52.085Z,36.1
2019-01-20T03:33:42.492Z,36.1
2019-01-20T03:34:32.560Z,36.1
2019-01-20T03:35:22.360Z,36.1
2019-01-20T03:36:12.341Z,36.1
2019-01-20T03:37:02.662Z,36.1
2019-01-20T03:37:52.740Z,36.1
2019-01-20T03:38:42.748Z,36.1
2019-01-20T03:39:32.608Z,36.1
2019-01-20T03:40:22.872Z,36.1
2019-01-20T03:41:12.983Z,36
2019-01-20T03:42:03.023Z,36
2019-01-20T03:42:53.032Z,36
2019-01-20T03:43:43.125Z,36
2019-01-20T03:44:32.887Z,36
2019-01-20T03:45:23.037Z,36
2019-01-20T03:46:13.042Z,36
2019-01-20T03:47:03.424Z,36
2019-01-20T03:47:52.879Z,36
2019-01-20T03:48:43.213Z,36
2019-01-20T03:49:33.489Z,36
2019-01-20T03:50:23.578Z,35.9
2019-01-20T03:51:13.095Z,35.9
2019-01-20T03:52:03.671Z,35.9
2019-01-20T03:52:53.439Z,35.9
2019-01-20T03:53:43.527Z,35.9
2019-01-20T03:54:33.632Z,35.9
2019-01-20T03:55:23.154Z,35.9
2019-01-20T03:56:13.681Z,35.9
2019-01-20T03:57:03.192Z,35.9
2019-01-20T03:57:53.818Z,35.9
2019-01-20T03:58:44.126Z,35.9
2019-01-20T03:59:34.184Z,35.9
2019-01-20T04:00:24.124Z,35.9
2019-01-20T04:01:14.294Z,35.9
2019-01-20T04:02:04.360Z,35.9
2019-01-20T04:02:53.852Z,35.9
2019-01-20T04:03:44.253Z,35.9
2019-01-20T04:04:33.956Z,35.9
2019-01-20T04:05:24.426Z,35.9
2019-01-20T04:06:14.688Z,35.9
2019-01-20T04:07:04.691Z,35.9
2019-01-20T04:07:56.551Z,35.9
2019-01-20T04:08:44.296Z,35.9
2019-01-20T04:09:34.591Z,35.9
2019-01-20T04:10:24.663Z,35.9
2019-01-20T04:11:14.459Z,35.9
2019-01-20T04:12:05.050Z,35.8
2019-01-20T04:12:55.150Z,35.8
2019-01-20T04:13:44.600Z,35.8
2019-01-20T04:14:34.653Z,35.8
2019-01-20T04:15:25.305Z,35.8
2019-01-20T04:16:15.052Z,35.8
2019-01-20T04:17:05.410Z,35.8
2019-01-20T04:17:55.442Z,35.8
2019-01-20T04:18:45.237Z,35.8
2019-01-20T04:19:35.344Z,35.8
2019-01-20T04:20:25.357Z,35.8
2019-01-20T04:21:15.722Z,35.8
2019-01-20T04:22:05.720Z,35.8
2019-01-20T04:22:55.568Z,35.8
2019-01-20T04:23:45.843Z,35.8
2019-01-20T04:24:35.890Z,35.8
2019-01-20T04:25:26.091Z,35.8
2019-01-20T04:26:15.747Z,35.8
2019-01-20T04:27:05.517Z,35.8
2019-01-20T04:27:56.139Z,35.8
2019-01-20T04:28:46.202Z,35.8
2019-01-20T04:29:36.247Z,35.8
2019-01-20T04:30:26.472Z,35.8
2019-01-20T04:31:16.351Z,35.8
2019-01-20T04:32:05.912Z,35.7
2019-01-20T04:32:56.210Z,35.7
2019-01-20T04:33:46.566Z,35.7
2019-01-20T04:34:36.311Z,35.7
2019-01-20T04:35:26.466Z,35.7
2019-01-20T04:36:16.426Z,35.7
2019-01-20T04:37:06.814Z,35.7
2019-01-20T04:37:56.819Z,35.7
2019-01-20T04:38:46.878Z,35.7
2019-01-20T04:39:36.681Z,35.7
2019-01-20T04:40:26.453Z,35.7
2019-01-20T04:41:16.563Z,35.6
2019-01-20T04:42:07.173Z,35.6
2019-01-20T04:42:57.241Z,35.7
2019-01-20T04:43:47.202Z,35.6
2019-01-20T04:44:37.009Z,35.7
2019-01-20T04:45:27.058Z,35.6
2019-01-20T04:46:16.898Z,35.7
2019-01-20T04:47:07.438Z,35.7
2019-01-20T04:47:56.929Z,35.6
2019-01-20T04:48:47.280Z,35.6
2019-01-20T04:49:36.758Z,35.6
2019-01-20T04:50:27.714Z,35.6
2019-01-20T04:51:17.427Z,35.6
2019-01-20T04:52:07.510Z,35.6
2019-01-20T04:52:57.578Z,35.6
2019-01-20T04:53:47.102Z,35.6
2019-01-20T04:54:37.686Z,35.6
2019-01-20T04:55:27.728Z,35.6
2019-01-20T04:56:18.092Z,35.6
2019-01-20T04:57:07.604Z,35.6
2019-01-20T04:57:58.185Z,35.6
2019-01-20T04:58:47.965Z,35.6
2019-01-20T04:59:37.749Z,35.6
2019-01-20T05:00:28.370Z,35.6
2019-01-20T05:01:18.416Z,35.6
2019-01-20T05:02:08.207Z,35.6
2019-01-20T05:02:58.263Z,35.6
2019-01-20T05:03:47.519Z,35.6
2019-01-20T05:04:38.360Z,35.5
2019-01-20T05:05:28.710Z,35.6
2019-01-20T05:06:18.752Z,35.5
2019-01-20T05:07:08.549Z,35.5
2019-01-20T05:07:58.617Z,35.5
2019-01-20T05:08:48.632Z,35.5
2019-01-20T05:09:39.004Z,35.5
2019-01-20T05:10:29.074Z,35.5
2019-01-20T05:11:18.817Z,35.5
2019-01-20T05:12:08.619Z,35.5
2019-01-20T05:12:59.229Z,35.5
2019-01-20T05:13:48.998Z,35.5
2019-01-20T05:14:39.331Z,35.4
2019-01-20T05:15:29.415Z,35.4
2019-01-20T05:16:19.169Z,35.5
2019-01-20T05:17:09.484Z,35.4
2019-01-20T05:17:59.552Z,35.4
2019-01-20T05:18:49.596Z,35.4
2019-01-20T05:19:39.067Z,35.4
2019-01-20T05:20:29.451Z,35.4
2019-01-20T05:21:19.514Z,35.4
2019-01-20T05:22:09.558Z,35.4
2019-01-20T05:22:59.878Z,35.4
2019-01-20T05:23:49.661Z,35.4
2019-01-20T05:24:39.996Z,35.4
2019-01-20T05:25:30.075Z,35.4
2019-01-20T05:26:19.896Z,35.4
2019-01-20T05:27:10.207Z,35.4
2019-01-20T05:28:00.235Z,35.4
2019-01-20T05:28:50.016Z,35.4
2019-01-20T05:29:40.344Z,35.4
2019-01-20T05:30:30.443Z,35.4
2019-01-20T05:31:20.175Z,35.4
2019-01-20T05:32:10.268Z,35.4
2019-01-20T05:33:00.602Z,35.4
2019-01-20T05:33:50.615Z,35.4
2019-01-20T05:34:40.725Z,35.4
2019-01-20T05:35:30.485Z,35.3
2019-01-20T05:36:20.242Z,35.4
2019-01-20T05:37:10.647Z,35.3
2019-01-20T05:38:00.670Z,35.3
2019-01-20T05:38:50.434Z,35.3
2019-01-20T05:39:41.015Z,35.3
2019-01-20T05:40:31.120Z,35.3
2019-01-20T05:41:21.191Z,35.3
2019-01-20T05:42:11.199Z,35.3
2019-01-20T05:43:01.264Z,35.3
2019-01-20T05:43:51.030Z,35.3
2019-01-20T05:44:41.375Z,35.3
2019-01-20T05:45:31.154Z,35.3
2019-01-20T05:46:21.507Z,35.3
2019-01-20T05:47:10.982Z,35.3
2019-01-20T05:48:01.636Z,35.3
2019-01-20T05:48:51.380Z,35.3
2019-01-20T05:49:41.729Z,35.3
2019-01-20T05:50:31.827Z,35.3
2019-01-20T05:51:21.814Z,35.3
2019-01-20T05:52:11.597Z,35.3
2019-01-20T05:53:01.669Z,35.3
2019-01-20T05:53:51.987Z,35.3
2019-01-20T05:54:41.789Z,35.3
2019-01-20T05:55:32.115Z,35.3
2019-01-20T05:56:21.904Z,35.3
2019-01-20T05:57:11.989Z,35.3
2019-01-20T05:58:02.111Z,35.2
2019-01-20T05:58:52.046Z,35.3
2019-01-20T05:59:42.435Z,35.2
2019-01-20T06:00:32.479Z,35.2
2019-01-20T06:01:22.505Z,35.2
2019-01-20T06:02:12.598Z,35.2
2019-01-20T06:03:02.376Z,35.2
2019-01-20T06:03:52.421Z,35.2
2019-01-20T06:04:42.721Z,35.2
2019-01-20T06:06:39.713Z,35.2
2019-01-20T06:07:30.318Z,35.2
2019-01-20T06:08:20.090Z,35.1
2019-01-20T06:09:10.426Z,35.2
2019-01-20T06:10:00.480Z,35.2
2019-01-20T06:10:50.530Z,35.1
2019-01-20T06:11:40.573Z,35.1
2019-01-20T06:12:30.445Z,35.1
2019-01-20T06:13:20.435Z,35.1
2019-01-20T06:14:10.215Z,35.1
2019-01-20T06:15:00.853Z,35.1
2019-01-20T06:15:50.346Z,35.1
2019-01-20T06:16:40.115Z,35.1
2019-01-20T06:17:31.012Z,35.1
2019-01-20T06:18:21.378Z,35.1
2019-01-20T06:19:10.879Z,35.1
2019-01-20T06:20:00.872Z,35.1
2019-01-20T06:20:50.664Z,35.1
2019-01-20T06:21:40.712Z,35.1
2019-01-20T06:22:32.618Z,35.1
2019-01-20T06:23:21.662Z,35.1
2019-01-20T06:24:10.897Z,35.1
2019-01-20T06:25:00.953Z,35.1
2019-01-20T06:25:51.315Z,35.1
2019-01-20T06:26:41.599Z,35.1
2019-01-20T06:27:31.679Z,35.1
2019-01-20T06:28:21.992Z,35.1
2019-01-20T06:29:12.044Z,35.1
2019-01-20T06:30:01.302Z,35.1
2019-01-20T06:30:51.899Z,35
2019-01-20T06:31:42.014Z,35.1
2019-01-20T06:32:46.386Z,35
2019-01-20T06:33:22.111Z,35
2019-01-20T06:34:12.424Z,35
2019-01-20T06:35:01.691Z,35
2019-01-20T06:35:52.516Z,35
2019-01-20T06:36:41.776Z,35
2019-01-20T06:37:32.348Z,35
2019-01-20T06:38:22.411Z,35
2019-01-20T06:39:12.826Z,35
2019-01-20T06:40:02.616Z,35
2019-01-20T06:40:52.796Z,35
2019-01-20T06:41:42.916Z,35
2019-01-20T06:42:32.693Z,34.9
2019-01-20T06:43:22.475Z,35
2019-01-20T06:44:12.551Z,34.9
2019-01-20T06:45:02.676Z,34.9
2019-01-20T06:45:52.661Z,34.9
2019-01-20T06:46:43.251Z,34.9
2019-01-20T06:47:33.033Z,34.9
2019-01-20T06:48:23.618Z,34.9
2019-01-20T06:49:13.433Z,34.9
2019-01-20T06:50:02.955Z,34.9
2019-01-20T06:50:53.270Z,34.9
2019-01-20T06:51:43.340Z,34.9
2019-01-20T06:52:33.370Z,34.9
2019-01-20T06:53:23.443Z,34.9
2019-01-20T06:54:13.824Z,34.9
2019-01-20T06:55:03.843Z,34.9
2019-01-20T06:55:53.621Z,34.9
2019-01-20T06:56:43.390Z,34.9
2019-01-20T06:57:34.003Z,34.9
2019-01-20T06:58:23.785Z,34.9
2019-01-20T06:59:13.896Z,34.9
2019-01-20T07:00:03.710Z,34.9
2019-01-20T07:00:53.140Z,34.9
2019-01-20T07:01:44.019Z,34.9
2019-01-20T07:02:34.089Z,34.9
2019-01-20T07:03:24.137Z,34.9
2019-01-20T07:04:13.984Z,34.8
2019-01-20T07:06:40.189Z,34.8
2019-01-20T07:07:30.717Z,34.8
2019-01-20T07:08:50.144Z,34.8
2019-01-20T07:09:10.354Z,34.8
2019-01-20T07:10:00.418Z,34.8
2019-01-20T07:10:50.219Z,34.8
2019-01-20T07:11:39.666Z,34.8
2019-01-20T07:12:30.766Z,34.8
2019-01-20T07:13:21.169Z,34.8
2019-01-20T07:14:10.654Z,34.8
2019-01-20T07:15:01.327Z,34.8
2019-01-20T07:15:51.246Z,34.8
2019-01-20T07:16:41.387Z,34.8
2019-01-20T07:17:31.646Z,34.8
2019-01-20T07:18:36.148Z,34.8
2019-01-20T07:19:25.761Z,34.8
2019-01-20T07:20:01.623Z,34.8
2019-01-20T07:20:50.944Z,34.8
2019-01-20T07:21:41.211Z,34.7
2019-01-20T07:22:31.207Z,34.8
2019-01-20T07:23:21.514Z,34.8
2019-01-20T07:24:13.753Z,34.8
2019-01-20T07:25:01.639Z,34.7
2019-01-20T07:25:51.496Z,34.8
2019-01-20T07:26:41.338Z,34.8
2019-01-20T07:28:01.383Z,34.7
2019-01-20T07:28:21.388Z,34.7
2019-01-20T07:29:11.950Z,34.7
2019-01-20T07:30:01.653Z,34.7
2019-01-20T07:30:52.290Z,34.7
2019-01-20T07:31:56.625Z,34.7
2019-01-20T07:32:32.517Z,34.7
2019-01-20T07:33:22.045Z,34.7
2019-01-20T07:34:12.552Z,34.7
2019-01-20T07:35:01.892Z,34.7
2019-01-20T07:35:52.213Z,34.6
2019-01-20T07:36:42.287Z,34.6
2019-01-20T07:37:31.751Z,34.6
2019-01-20T07:38:21.809Z,34.6
2019-01-20T07:39:12.425Z,34.6
2019-01-20T07:40:02.857Z,34.6
2019-01-20T07:40:51.982Z,34.6
2019-01-20T07:41:42.689Z,34.6
2019-01-20T07:42:32.919Z,34.6
2019-01-20T07:43:22.717Z,34.6
2019-01-20T07:44:12.765Z,34.6
2019-01-20T07:45:02.330Z,34.6
2019-01-20T07:45:53.152Z,34.6
2019-01-20T07:46:42.654Z,34.6
2019-01-20T07:47:32.996Z,34.6
2019-01-20T07:48:23.339Z,34.6
2019-01-20T07:49:13.099Z,34.6
2019-01-20T07:50:03.116Z,34.6
2019-01-20T07:50:53.249Z,34.6
2019-01-20T07:51:42.741Z,34.6
2019-01-20T07:52:33.822Z,34.6
2019-01-20T07:53:23.399Z,34.6
2019-01-20T07:54:13.238Z,34.6
2019-01-20T07:55:03.029Z,34.6
2019-01-20T07:55:55.417Z,34.6
2019-01-20T07:56:43.621Z,34.6
2019-01-20T07:57:33.946Z,34.5
2019-01-20T07:58:24.011Z,34.5
2019-01-20T07:59:13.515Z,34.5
2019-01-20T08:00:03.581Z,34.5
2019-01-20T08:00:53.928Z,34.5
2019-01-20T08:01:44.253Z,34.5
2019-01-20T08:02:34.291Z,34.5
2019-01-20T08:03:24.065Z,34.5
2019-01-20T08:04:14.410Z,34.5
2019-01-20T08:05:04.305Z,34.5
2019-01-20T08:05:53.691Z,34.5
2019-01-20T08:06:44.331Z,34.5
2019-01-20T08:07:34.365Z,34.5
2019-01-20T08:08:24.147Z,34.5
2019-01-20T08:09:14.777Z,34.5
2019-01-20T08:10:04.822Z,34.5
2019-01-20T08:10:54.871Z,34.4
2019-01-20T08:11:45.263Z,34.5
2019-01-20T08:12:35.258Z,34.4
2019-01-20T08:13:28.793Z,34.4
2019-01-20T08:14:15.094Z,34.4
2019-01-20T08:15:04.305Z,34.4
2019-01-20T08:15:54.925Z,34.4
2019-01-20T08:16:45.072Z,34.4
2019-01-20T08:17:34.772Z,34.4
2019-01-20T08:18:25.150Z,34.4
2019-01-20T08:19:14.329Z,34.4
2019-01-20T08:20:05.245Z,34.4
2019-01-20T08:20:55.279Z,34.4
2019-01-20T08:21:45.080Z,34.4
2019-01-20T08:22:35.624Z,34.4
2019-01-20T08:23:25.721Z,34.4
2019-01-20T08:24:15.351Z,34.4
2019-01-20T08:25:05.597Z,34.4
2019-01-20T08:25:56.376Z,34.4
2019-01-20T08:26:45.962Z,34.4
2019-01-20T08:27:36.066Z,34.4
2019-01-20T08:28:25.794Z,34.4
2019-01-20T08:29:16.923Z,34.4
2019-01-20T08:30:06.199Z,34.4
2019-01-20T08:30:56.289Z,34.4
2019-01-20T08:31:46.038Z,34.3
2019-01-20T08:32:36.796Z,34.3
2019-01-20T08:33:25.849Z,34.4
2019-01-20T08:34:16.460Z,34.3
2019-01-20T08:35:20.619Z,34.3
2019-01-20T08:35:55.740Z,34.3
2019-01-20T08:36:46.693Z,34.3
2019-01-20T08:37:38.008Z,34.3
2019-01-20T08:38:26.218Z,34.3
2019-01-20T08:39:16.546Z,34.3
2019-01-20T08:40:06.043Z,34.3
2019-01-20T08:40:56.655Z,34.3
2019-01-20T08:41:47.136Z,34.3
2019-01-20T08:42:37.033Z,34.3
2019-01-20T08:43:34.668Z,34.3
2019-01-20T08:44:17.146Z,34.3
2019-01-20T08:45:21.648Z,34.3
2019-01-20T08:45:56.481Z,34.3
2019-01-20T08:46:46.790Z,34.3
2019-01-20T08:47:38.528Z,34.3
2019-01-20T08:48:26.626Z,34.3
2019-01-20T08:49:17.495Z,34.3
2019-01-20T08:50:07.275Z,34.3
2019-01-20T08:50:57.348Z,34.3
2019-01-20T08:51:47.117Z,34.3
2019-01-20T08:52:37.230Z,34.2
2019-01-20T08:53:29.005Z,34.3
2019-01-20T08:54:17.571Z,34.3
2019-01-20T08:55:07.370Z,34.2
2019-01-20T08:55:59.015Z,34.3
2019-01-20T08:56:48.224Z,34.2
2019-01-20T08:57:38.062Z,34.2
2019-01-20T08:58:27.364Z,34.2
2019-01-20T08:59:17.624Z,34.2
2019-01-20T09:00:07.679Z,34.2
2019-01-20T09:00:57.468Z,34.2
2019-01-20T09:01:48.044Z,34.2
2019-01-20T09:02:38.128Z,34.2
2019-01-20T09:03:27.919Z,34.2
2019-01-20T09:04:18.279Z,34.2
2019-01-20T09:05:08.324Z,34.2
2019-01-20T09:05:58.146Z,34.2
2019-01-20T09:06:47.869Z,34.1
2019-01-20T09:07:38.777Z,34.1
2019-01-20T09:08:28.339Z,34.1
2019-01-20T09:09:18.339Z,34.1
2019-01-20T09:10:07.819Z,34.1
2019-01-20T09:10:59.001Z,34.1
2019-01-20T09:11:48.784Z,34.1
2019-01-20T09:12:38.656Z,34.1
2019-01-20T09:13:43.348Z,34.1
2019-01-20T09:14:19.033Z,34.1
2019-01-20T09:15:08.469Z,34.1
2019-01-20T09:15:58.796Z,34.1
2019-01-20T09:16:48.848Z,34.1
2019-01-20T09:17:38.881Z,34.1
2019-01-20T09:18:44.173Z,34.1
2019-01-20T09:19:19.016Z,34.1
2019-01-20T09:20:09.871Z,34.1
2019-01-20T09:20:59.148Z,34.1
2019-01-20T09:21:49.820Z,34.1
2019-01-20T09:22:39.525Z,34.1
2019-01-20T09:23:29.588Z,34.1
2019-01-20T09:24:19.710Z,34.1
2019-01-20T09:25:09.688Z,34
2019-01-20T09:26:00.025Z,34.1
2019-01-20T09:26:49.250Z,34.1
2019-01-20T09:27:39.858Z,34.1
2019-01-20T09:28:29.640Z,34.1
2019-01-20T09:29:19.977Z,34.1
2019-01-20T09:30:09.773Z,34
2019-01-20T09:30:59.532Z,34
2019-01-20T09:31:50.353Z,34
2019-01-20T09:32:40.222Z,34
2019-01-20T09:33:30.779Z,34
2019-01-20T09:34:20.043Z,34
2019-01-20T09:35:10.422Z,34
2019-01-20T09:36:00.435Z,34
2019-01-20T09:36:50.789Z,34
2019-01-20T09:37:40.329Z,34
2019-01-20T09:38:30.888Z,34
2019-01-20T09:39:20.662Z,33.9
2019-01-20T09:40:10.712Z,34
2019-01-20T09:41:00.794Z,34
2019-01-20T09:41:50.591Z,33.9
2019-01-20T09:42:41.635Z,33.9
2019-01-20T09:43:30.694Z,33.9
2019-01-20T09:44:21.005Z,33.9
2019-01-20T09:45:11.142Z,33.9
2019-01-20T09:46:01.178Z,33.9
2019-01-20T09:46:51.149Z,33.9
2019-01-20T09:47:42.785Z,33.9
2019-01-20T09:48:31.551Z,33.9
2019-01-20T09:49:21.371Z,33.9
2019-01-20T09:50:11.579Z,33.9
2019-01-20T09:51:01.444Z,33.9
2019-01-20T09:51:51.203Z,33.9
2019-01-20T09:52:41.551Z,33.9
2019-01-20T09:53:31.398Z,33.9
2019-01-20T09:54:21.943Z,33.9
2019-01-20T09:55:11.784Z,33.9
2019-01-20T09:56:01.820Z,33.9
2019-01-20T09:56:51.273Z,33.9
2019-01-20T09:57:41.655Z,33.9
2019-01-20T09:58:30.918Z,33.9
2019-01-20T09:59:20.969Z,33.9
2019-01-20T10:00:11.788Z,33.9
2019-01-20T10:01:01.648Z,33.9
2019-01-20T10:01:51.885Z,33.8
2019-01-20T10:02:42.278Z,33.8
2019-01-20T10:03:31.433Z,33.8
2019-01-20T10:04:22.627Z,33.8
2019-01-20T10:05:12.183Z,33.8
2019-01-20T10:07:40.350Z,33.8
2019-01-20T10:08:30.445Z,33.8
2019-01-20T10:09:20.472Z,33.8
2019-01-20T10:10:10.562Z,33.8
2019-01-20T10:11:00.092Z,33.8
2019-01-20T10:11:50.642Z,33.8
2019-01-20T10:12:40.695Z,33.8
2019-01-20T10:13:30.484Z,33.8
2019-01-20T10:14:20.825Z,33.8
2019-01-20T10:15:10.927Z,33.8
2019-01-20T10:16:00.925Z,33.8
2019-01-20T10:16:50.975Z,33.8
2019-01-20T10:17:41.047Z,33.8
2019-01-20T10:18:30.831Z,33.8
2019-01-20T10:19:21.145Z,33.8
2019-01-20T10:20:10.902Z,33.8
2019-01-20T10:21:01.259Z,33.8
2019-01-20T10:21:51.379Z,33.8
2019-01-20T10:22:40.819Z,33.8
2019-01-20T10:23:31.422Z,33.7
2019-01-20T10:24:21.214Z,33.8
2019-01-20T10:25:18.886Z,33.8
2019-01-20T10:26:01.319Z,33.7
2019-01-20T10:26:50.906Z,33.7
2019-01-20T10:27:41.233Z,33.7
2019-01-20T10:28:31.774Z,33.7
2019-01-20T10:29:21.826Z,33.7
2019-01-20T10:30:11.146Z,33.6
2019-01-20T10:31:01.668Z,33.7
2019-01-20T10:31:52.005Z,33.6
2019-01-20T10:32:41.581Z,33.6
2019-01-20T10:33:31.379Z,33.6
2019-01-20T10:34:22.163Z,33.6
2019-01-20T10:35:12.213Z,33.6
2019-01-20T10:36:02.276Z,33.6
2019-01-20T10:36:51.579Z,33.6
2019-01-20T10:37:42.115Z,33.6
2019-01-20T10:38:32.004Z,33.6
2019-01-20T10:39:22.278Z,33.6
2019-01-20T10:40:12.550Z,33.6
2019-01-20T10:41:02.634Z,33.6
2019-01-20T10:41:54.047Z,33.6
2019-01-20T10:42:42.488Z,33.6
2019-01-20T10:43:32.790Z,33.6
2019-01-20T10:44:22.884Z,33.5
2019-01-20T10:45:12.945Z,33.6
2019-01-20T10:46:02.486Z,33.5
2019-01-20T10:46:52.535Z,33.6
2019-01-20T10:47:42.336Z,33.6
2019-01-20T10:48:32.948Z,33.5
2019-01-20T10:49:22.410Z,33.5
2019-01-20T10:50:12.767Z,33.5
2019-01-20T10:51:03.040Z,33.5
2019-01-20T10:51:52.792Z,33.5
2019-01-20T10:52:42.652Z,33.5
2019-01-20T10:53:33.202Z,33.5
2019-01-20T10:54:23.563Z,33.5
2019-01-20T10:55:13.634Z,33.4
2019-01-20T10:56:03.376Z,33.4
2019-01-20T10:56:52.935Z,33.4
2019-01-20T10:57:43.035Z,33.4
2019-01-20T10:58:33.572Z,33.4
2019-01-20T10:59:23.876Z,33.4
2019-01-20T11:00:12.887Z,33.4
2019-01-20T11:01:03.492Z,33.4
2019-01-20T11:01:54.056Z,33.4
2019-01-20T11:02:43.649Z,33.4
2019-01-20T11:03:33.407Z,33.4
2019-01-20T11:04:23.950Z,33.4
2019-01-20T11:05:13.794Z,33.4
2019-01-20T11:06:03.889Z,33.4
2019-01-20T11:06:53.347Z,33.4
2019-01-20T11:07:43.884Z,33.4
2019-01-20T11:08:34.501Z,33.4
2019-01-20T11:09:24.549Z,33.4
2019-01-20T11:10:14.169Z,33.4
2019-01-20T11:11:04.682Z,33.4
2019-01-20T11:11:54.717Z,33.4
2019-01-20T11:12:45.206Z,33.3
2019-01-20T11:13:34.568Z,33.3
2019-01-20T11:14:24.895Z,33.3
2019-01-20T11:15:15.018Z,33.3